TUPJ/RAD METAR and TAF weather

Enter ICAO airport designator
Station Type Date Time Source
TUPJ METAR 2019/02/16 17:00 UTC NOAA

TUPJ 161700Z 18007KT 10SM SCT019 28/22 A3005 RMK Q1017


Station Type Date Time Source
TUPJ Decoded METAR 2019/02/16 17:00 UTC NOAA

Beef Island, Tortola, British Virgin Islands (TUPJ) 18-27N 064-32W
Feb 16, 2019 - 12:00 PM EST / 2019.02.16 1700 UTC
Wind: from the S (180 degrees) at 8 MPH (7 KT):0
Visibility: 10 mile(s):0
Sky conditions: partly cloudy
Temperature: 82 F (28 C)
Dew Point: 71 F (22 C)
Relative Humidity: 69%
Pressure (altimeter): 30.05 in. Hg (1017 hPa)
ob: TUPJ 161700Z 18007KT 10SM SCT019 28/22 A3005 RMK Q1017
cycle: 17

Station Type Date Time Source
TUPJ TAF 2019/02/16 18:09 UTC NOAA

TAF TUPJ 161700Z 1618/1718 18009KT 9999 SCT018 PROB30
TEMPO 1706/1716 SHRA


Example: see airport list